createdAt,value
2023-04-15T00:01:37.312Z,99435.38
2023-04-15T00:04:40.153Z,99427.69
2023-04-15T00:07:42.700Z,99448.53
2023-04-15T00:10:46.707Z,99425.72
2023-04-15T00:13:49.440Z,99439.63
2023-04-15T00:16:56.274Z,99444.03
2023-04-15T00:20:00.011Z,99424.25
2023-04-15T00:23:04.199Z,99442.03
2023-04-15T00:26:07.562Z,99420.09
2023-04-15T00:29:10.390Z,99420.59
2023-04-15T00:32:13.445Z,99450.22
2023-04-15T00:35:16.606Z,99445.59
2023-04-15T00:38:18.999Z,99446.72
2023-04-15T00:41:23.084Z,99435.69
2023-04-15T00:44:25.769Z,99443.66
2023-04-15T00:47:30.016Z,99435.91
2023-04-15T00:50:33.718Z,99439.41
2023-04-15T00:53:36.367Z,99434.25
2023-04-15T00:56:39.798Z,99429.41
2023-04-15T00:59:42.627Z,99434.94
2023-04-15T01:02:45.759Z,99432.31
2023-04-15T01:05:49.417Z,99428.19
2023-04-15T01:08:51.766Z,99431.56
2023-04-15T01:11:54.639Z,99423.97
2023-04-15T01:14:57.367Z,99419.69
2023-04-15T01:18:00.404Z,99397.13
2023-04-15T01:21:03.885Z,99424.72
2023-04-15T01:24:10.417Z,99416.41
2023-04-15T01:27:12.725Z,99416.69
2023-04-15T01:30:15.614Z,99415.44
2023-04-15T01:33:17.955Z,99420.81
2023-04-15T01:36:21.371Z,99428.06
2023-04-15T01:39:23.707Z,99407.00
2023-04-15T01:42:27.750Z,99427.00
2023-04-15T01:45:30.312Z,99411.41
2023-04-15T01:48:33.487Z,99435.69
2023-04-15T01:51:35.814Z,99432.91
2023-04-15T01:54:38.433Z,99413.66
2023-04-15T01:57:41.234Z,99430.59
2023-04-15T02:00:44.066Z,99433.06
2023-04-15T02:03:48.037Z,99430.91
2023-04-15T02:06:50.862Z,99439.84
2023-04-15T02:09:53.427Z,99413.59
2023-04-15T02:12:55.776Z,99432.16
2023-04-15T02:15:59.738Z,99436.66
2023-04-15T02:19:02.592Z,99425.44
2023-04-15T02:22:05.375Z,99436.09
2023-04-15T02:25:09.112Z,99431.19
2023-04-15T02:28:12.369Z,99442.25
2023-04-15T02:31:15.113Z,99447.78
2023-04-15T02:34:17.513Z,99441.56
2023-04-15T02:37:20.562Z,99443.31
2023-04-15T02:40:22.929Z,99441.56
2023-04-15T02:43:26.236Z,99442.81
2023-04-15T02:46:28.588Z,99441.66
2023-04-15T02:49:31.283Z,99421.69
2023-04-15T02:52:33.620Z,99444.59
2023-04-15T02:55:36.406Z,99441.25
2023-04-15T02:58:40.698Z,99422.34
2023-04-15T03:01:43.792Z,99440.34
2023-04-15T03:04:46.491Z,99430.94
2023-04-15T03:07:49.252Z,99440.56
2023-04-15T03:10:53.097Z,99435.56
2023-04-15T03:13:55.767Z,99429.28
2023-04-15T03:16:59.549Z,99440.25
2023-04-15T03:20:05.079Z,99419.66
2023-04-15T03:23:07.631Z,99430.75
2023-04-15T03:26:10.368Z,99427.78
2023-04-15T03:29:12.726Z,99432.28
2023-04-15T03:32:15.897Z,99435.28
2023-04-15T03:35:18.241Z,99431.06
2023-04-15T03:38:21.082Z,99411.28
2023-04-15T03:41:23.638Z,99427.56
2023-04-15T03:44:29.279Z,99428.47
2023-04-15T03:47:32.181Z,99427.53
2023-04-15T03:50:34.844Z,99441.69
2023-04-15T03:53:37.125Z,99432.19
2023-04-15T03:56:39.813Z,99416.97
2023-04-15T03:59:42.114Z,99417.00
2023-04-15T04:02:46.219Z,99441.53
2023-04-15T04:05:49.002Z,99422.09
2023-04-15T04:08:51.290Z,99427.53
2023-04-15T04:11:53.885Z,99417.91
2023-04-15T04:14:56.389Z,99420.56
2023-04-15T04:17:58.990Z,99431.63
2023-04-15T04:21:01.573Z,99421.91
2023-04-15T04:24:04.621Z,99430.63
2023-04-15T04:27:07.143Z,99427.06
2023-04-15T04:30:09.952Z,99411.56
2023-04-15T04:33:12.424Z,99407.84
2023-04-15T04:36:15.023Z,99424.06
2023-04-15T04:39:17.318Z,99429.81
2023-04-15T04:42:20.067Z,99426.75
2023-04-15T04:45:22.752Z,99421.81
2023-04-15T04:48:26.021Z,99405.94
2023-04-15T04:51:28.382Z,99419.69
2023-04-15T04:54:31.619Z,99405.75
2023-04-15T04:57:35.897Z,99431.19
2023-04-15T05:00:39.014Z,99433.34
2023-04-15T05:03:41.894Z,99416.16
2023-04-15T05:06:44.832Z,99406.34
2023-04-15T05:09:47.482Z,99409.38
2023-04-15T05:12:50.545Z,99426.19
2023-04-15T05:15:53.409Z,99408.69
2023-04-15T05:18:56.189Z,99426.62
2023-04-15T05:21:58.473Z,99414.19
2023-04-15T05:25:01.143Z,99433.75
2023-04-15T05:28:03.549Z,99434.59
2023-04-15T05:31:07.368Z,99413.59
2023-04-15T05:34:10.401Z,99436.16
2023-04-15T05:37:13.117Z,99416.16
2023-04-15T05:40:15.486Z,99418.53
2023-04-15T05:43:18.117Z,99423.34
2023-04-15T05:46:20.581Z,99438.31
2023-04-15T05:49:23.297Z,99432.56
2023-04-15T05:52:25.703Z,99422.53
2023-04-15T05:55:28.371Z,99448.12
2023-04-15T05:58:31.434Z,99443.25
2023-04-15T06:01:34.402Z,99427.44
2023-04-15T06:04:37.214Z,99455.44
2023-04-15T06:07:39.650Z,99434.53
2023-04-15T06:10:42.333Z,99458.63
2023-04-15T06:13:44.662Z,99454.72
2023-04-15T06:16:47.357Z,99463.12
2023-04-15T06:19:51.793Z,99461.81
2023-04-15T06:22:54.575Z,99471.53
2023-04-15T06:25:56.878Z,99473.59
2023-04-15T06:28:59.686Z,99457.50
2023-04-15T06:32:02.204Z,99472.66
2023-04-15T06:35:05.616Z,99471.62
2023-04-15T06:38:08.005Z,99483.41
2023-04-15T06:41:10.785Z,99464.62
2023-04-15T06:44:13.143Z,99473.03
2023-04-15T06:47:15.959Z,99476.38
2023-04-15T06:50:18.695Z,99484.63
2023-04-15T06:53:22.113Z,99495.78
2023-04-15T06:56:24.436Z,99485.50
2023-04-15T06:59:27.433Z,99493.50
2023-04-15T07:02:29.898Z,99492.19
2023-04-15T07:05:32.615Z,99481.22
2023-04-15T07:08:35.028Z,99477.28
2023-04-15T07:11:37.691Z,99474.78
2023-04-15T07:14:40.169Z,99476.88
2023-04-15T07:17:45.549Z,99493.13
2023-04-15T07:20:48.331Z,99490.31
2023-04-15T07:23:51.191Z,99496.50
2023-04-15T07:26:59.476Z,99497.81
2023-04-15T07:30:03.773Z,99495.59
2023-04-15T07:33:07.137Z,99507.72
2023-04-15T07:36:10.779Z,99501.25
2023-04-15T07:39:13.595Z,99496.66
2023-04-15T07:42:17.084Z,99492.59
2023-04-15T07:45:20.153Z,99495.06
2023-04-15T07:48:22.848Z,99499.22
2023-04-15T07:51:25.724Z,99500.19
2023-04-15T07:54:28.379Z,99499.34
2023-04-15T07:57:31.004Z,99484.47
2023-04-15T08:00:33.675Z,99502.62
2023-04-15T08:03:36.626Z,99493.78
2023-04-15T08:06:40.154Z,99499.69
2023-04-15T08:09:42.968Z,99501.16
2023-04-15T08:12:49.134Z,99499.22
2023-04-15T08:16:14.284Z,99491.50
2023-04-15T08:19:17.234Z,99505.59
2023-04-15T08:22:21.304Z,99498.22
2023-04-15T08:25:28.017Z,99499.63
2023-04-15T08:28:30.910Z,99490.19
2023-04-15T08:31:33.419Z,99502.88
2023-04-15T08:34:36.387Z,99508.09
2023-04-15T08:37:38.701Z,99513.72
2023-04-15T08:40:43.447Z,99515.69
2023-04-15T08:44:07.660Z,99514.75
2023-04-15T08:47:14.746Z,99508.06
2023-04-15T08:50:18.057Z,99522.78
2023-04-15T08:53:21.633Z,99521.13
2023-04-15T08:56:28.228Z,99525.19
2023-04-15T08:59:31.516Z,99527.00
2023-04-15T09:02:34.001Z,99529.28
2023-04-15T09:05:37.620Z,99522.44
2023-04-15T09:08:40.467Z,99517.72
2023-04-15T09:11:43.293Z,99532.94
2023-04-15T09:14:47.284Z,99535.97
2023-04-15T09:17:50.127Z,99514.47
2023-04-15T09:20:53.651Z,99534.53
2023-04-15T09:24:01.661Z,99531.44
2023-04-15T09:27:04.428Z,99531.78
2023-04-15T09:30:09.307Z,99528.34
2023-04-15T09:33:14.760Z,99539.31
2023-04-15T09:36:17.520Z,99534.81
2023-04-15T09:39:20.188Z,99527.34
2023-04-15T09:42:26.982Z,99516.28
2023-04-15T09:45:30.221Z,99526.19
2023-04-15T09:48:32.865Z,99525.50
2023-04-15T09:51:36.056Z,99519.72
2023-04-15T09:54:39.320Z,99538.00
2023-04-15T09:57:41.933Z,99530.31
2023-04-15T10:00:45.321Z,99514.41
2023-04-15T10:03:48.484Z,99542.94
2023-04-15T10:06:51.365Z,99533.78
2023-04-15T10:09:55.182Z,99522.78
2023-04-15T10:12:57.587Z,99542.94
2023-04-15T10:16:07.841Z,99542.31
2023-04-15T10:19:11.260Z,99543.59
2023-04-15T10:22:15.064Z,99549.50
2023-04-15T10:25:18.395Z,99550.66
2023-04-15T10:28:25.203Z,99547.88
2023-04-15T10:31:28.556Z,99547.53
2023-04-15T10:34:32.321Z,99553.22
2023-04-15T10:37:39.204Z,99554.06
2023-04-15T10:40:42.318Z,99540.12
2023-04-15T10:43:54.504Z,99548.06
2023-04-15T10:46:58.629Z,99557.16
2023-04-15T10:50:02.609Z,99558.47
2023-04-15T10:53:05.753Z,99553.25
2023-04-15T10:56:08.630Z,99567.16
2023-04-15T10:59:12.895Z,99552.91
2023-04-15T11:02:15.621Z,99568.44
2023-04-15T11:05:19.562Z,99572.56
2023-04-15T11:08:55.642Z,99576.97
2023-04-15T11:12:10.869Z,99579.22
2023-04-15T11:15:42.298Z,99574.87
2023-04-15T11:18:54.816Z,99556.28
2023-04-15T11:21:57.502Z,99585.88
2023-04-15T11:25:00.072Z,99579.63
2023-04-15T11:28:02.888Z,99584.19
2023-04-15T11:31:28.627Z,99583.84
2023-04-15T11:34:33.705Z,99567.50
2023-04-15T11:37:37.162Z,99576.38
2023-04-15T11:40:40.311Z,99571.59
2023-04-15T11:43:42.937Z,99578.97
2023-04-15T11:46:45.684Z,99584.38
2023-04-15T11:49:48.621Z,99578.72
2023-04-15T11:52:58.978Z,99585.34
2023-04-15T11:56:02.008Z,99584.22
2023-04-15T11:59:04.459Z,99565.87
2023-04-15T12:02:14.175Z,99585.19
2023-04-15T12:05:17.259Z,99581.91
2023-04-15T12:08:19.741Z,99578.09
2023-04-15T12:11:36.279Z,99587.50
2023-04-15T12:14:40.146Z,99589.37
2023-04-15T12:17:51.990Z,99587.06
2023-04-15T12:20:54.695Z,99594.50
2023-04-15T12:23:58.215Z,99574.34
2023-04-15T12:27:04.321Z,99592.75
2023-04-15T12:30:08.116Z,99573.44
2023-04-15T12:33:12.534Z,99592.50
2023-04-15T12:36:16.618Z,99595.91
2023-04-15T12:39:22.612Z,99597.00
2023-04-15T12:42:25.286Z,99598.47
2023-04-15T12:45:29.463Z,99600.09
2023-04-15T12:48:33.327Z,99596.34
2023-04-15T12:51:35.766Z,99586.03
2023-04-15T12:54:39.615Z,99574.72
2023-04-15T12:57:41.888Z,99604.19
2023-04-15T13:00:44.851Z,99589.94
2023-04-15T13:03:48.156Z,99605.50
2023-04-15T13:06:50.916Z,99594.38
2023-04-15T13:09:53.224Z,99602.59
2023-04-15T13:12:56.845Z,99607.25
2023-04-15T13:16:01.504Z,99619.78
2023-04-15T13:19:04.346Z,99621.72
2023-04-15T13:22:08.368Z,99613.72
2023-04-15T13:25:11.711Z,99613.84
2023-04-15T13:28:14.109Z,99607.44
2023-04-15T13:31:16.951Z,99619.91
2023-04-15T13:34:19.692Z,99609.94
2023-04-15T13:37:28.013Z,99621.56
2023-04-15T13:40:31.412Z,99603.88
2023-04-15T13:43:34.368Z,99600.75
2023-04-15T13:46:37.853Z,99627.31
2023-04-15T13:49:41.149Z,99627.78
2023-04-15T13:52:43.574Z,99631.34
2023-04-15T13:55:46.298Z,99631.00
2023-04-15T13:58:48.685Z,99632.66
2023-04-15T14:01:51.402Z,99618.94
2023-04-15T14:04:54.097Z,99634.84
2023-04-15T14:07:56.488Z,99618.44
2023-04-15T14:10:59.352Z,99635.31
2023-04-15T14:14:01.658Z,99649.06
2023-04-15T14:17:05.461Z,99627.28
2023-04-15T14:20:09.434Z,99639.91
2023-04-15T14:23:12.077Z,99626.44
2023-04-15T14:26:14.774Z,99641.34
2023-04-15T14:29:17.970Z,99652.03
2023-04-15T14:32:21.295Z,99650.72
2023-04-15T14:35:26.562Z,99653.84
2023-04-15T14:38:28.975Z,99652.41
2023-04-15T14:41:31.580Z,99655.16
2023-04-15T14:44:33.921Z,99659.94
2023-04-15T14:47:36.644Z,99656.00
2023-04-15T14:50:40.005Z,99648.44
2023-04-15T14:53:42.633Z,99667.47
2023-04-15T14:56:44.957Z,99671.38
2023-04-15T14:59:47.634Z,99670.09
2023-04-15T15:02:50.019Z,99660.59
2023-04-15T15:05:52.918Z,99670.41
2023-04-15T15:08:55.371Z,99656.81
2023-04-15T15:11:58.305Z,99671.72
2023-04-15T15:15:03.035Z,99672.87
2023-04-15T15:18:07.864Z,99678.63
2023-04-15T15:21:10.907Z,99680.91
2023-04-15T15:24:13.589Z,99671.06
2023-04-15T15:27:16.065Z,99664.16
2023-04-15T15:30:18.799Z,99685.16
2023-04-15T15:33:21.380Z,99692.84
2023-04-15T15:36:24.459Z,99685.31
2023-04-15T15:39:27.658Z,99698.75
2023-04-15T15:42:32.359Z,99708.91
2023-04-15T15:45:35.605Z,99702.00
2023-04-15T15:48:38.272Z,99714.78
2023-04-15T15:51:40.605Z,99702.47
2023-04-15T15:54:43.736Z,99705.41
2023-04-15T15:57:46.497Z,99728.00
2023-04-15T16:00:49.483Z,99709.63
2023-04-15T16:03:52.329Z,99717.00
2023-04-15T16:06:54.833Z,99732.63
2023-04-15T16:09:57.753Z,99722.94
2023-04-15T16:13:00.265Z,99745.12
2023-04-15T16:16:02.832Z,99745.69
2023-04-15T16:19:05.851Z,99744.91
2023-04-15T16:22:08.908Z,99759.16
2023-04-15T16:25:11.374Z,99734.47
2023-04-15T16:28:25.768Z,99750.66
2023-04-15T16:31:30.040Z,99751.81
2023-04-15T16:34:32.683Z,99742.31
2023-04-15T16:37:36.222Z,99738.50
2023-04-15T16:40:40.255Z,99756.09
2023-04-15T16:43:43.689Z,99753.06
2023-04-15T16:46:46.395Z,99762.28
2023-04-15T16:49:48.735Z,99760.50
2023-04-15T16:52:51.369Z,99770.53
2023-04-15T16:55:53.923Z,99769.41
2023-04-15T16:58:56.842Z,99781.81
2023-04-15T17:01:59.545Z,99792.72
2023-04-15T17:05:02.272Z,99772.69
2023-04-15T17:08:05.775Z,99781.09
2023-04-15T17:11:08.433Z,99799.28
2023-04-15T17:14:10.963Z,99799.91
2023-04-15T17:17:13.668Z,99793.22
2023-04-15T17:20:17.477Z,99809.25
2023-04-15T17:23:20.077Z,99820.56
2023-04-15T17:26:22.407Z,99797.13
2023-04-15T17:29:25.145Z,99808.56
2023-04-15T17:32:31.840Z,99833.00
2023-04-15T17:35:34.731Z,99828.56
2023-04-15T17:38:37.138Z,99821.59
2023-04-15T17:41:39.757Z,99829.94
2023-04-15T17:44:42.138Z,99839.16
2023-04-15T17:47:44.848Z,99850.91
2023-04-15T17:50:47.531Z,99848.25
2023-04-15T17:53:51.114Z,99852.03
2023-04-15T17:56:54.031Z,99856.81
2023-04-15T17:59:59.789Z,99837.59
2023-04-15T18:03:02.366Z,99864.44
2023-04-15T18:06:05.430Z,99852.28
2023-04-15T18:09:09.100Z,99877.78
2023-04-15T18:12:11.762Z,99871.31
2023-04-15T18:15:14.607Z,99859.91
2023-04-15T18:18:17.308Z,99870.06
2023-04-15T18:21:19.722Z,99870.00
2023-04-15T18:24:22.655Z,99886.66
2023-04-15T18:27:25.001Z,99892.09
2023-04-15T18:30:27.647Z,99876.25
2023-04-15T18:33:30.002Z,99890.12
2023-04-15T18:36:32.845Z,99906.72
2023-04-15T18:39:35.316Z,99896.28
2023-04-15T18:42:37.991Z,99917.28
2023-04-15T18:45:40.561Z,99927.25
2023-04-15T18:48:43.294Z,99933.09
2023-04-15T18:51:45.664Z,99913.66
2023-04-15T18:54:48.284Z,99933.94
2023-04-15T18:57:51.414Z,99946.16
2023-04-15T19:00:54.499Z,99951.44
2023-04-15T19:03:57.323Z,99950.91
2023-04-15T19:07:00.183Z,99933.63
2023-04-15T19:10:04.452Z,99957.38
2023-04-15T19:13:07.475Z,99951.28
2023-04-15T19:16:09.813Z,99951.19
2023-04-15T19:19:14.702Z,99971.03
2023-04-15T19:22:17.195Z,99981.97
2023-04-15T19:25:19.975Z,99973.50
2023-04-15T19:28:22.349Z,99983.38
2023-04-15T19:31:26.118Z,99983.38
2023-04-15T19:34:28.522Z,99995.91
2023-04-15T19:37:31.389Z,99991.59
2023-04-15T19:40:33.892Z,99987.25
2023-04-15T19:43:37.114Z,100005.16
2023-04-15T19:46:40.415Z,100008.22
2023-04-15T19:49:43.468Z,100001.25
2023-04-15T19:52:45.956Z,100003.72
2023-04-15T19:55:48.959Z,100015.56
2023-04-15T19:58:53.115Z,99993.84
2023-04-15T20:01:55.859Z,100012.56
2023-04-15T20:04:58.574Z,100014.44
2023-04-15T20:08:03.039Z,100017.50
2023-04-15T20:11:05.837Z,100025.34
2023-04-15T20:14:08.329Z,100024.13
2023-04-15T20:17:11.176Z,100020.19
2023-04-15T20:20:13.575Z,100027.41
2023-04-15T20:23:16.270Z,100023.78
2023-04-15T20:26:19.668Z,100027.19
2023-04-15T20:29:22.419Z,100016.69
2023-04-15T20:32:25.055Z,100012.25
2023-04-15T20:35:30.926Z,100019.53
2023-04-15T20:38:33.360Z,100017.47
2023-04-15T20:41:36.068Z,100012.69
2023-04-15T20:44:38.654Z,100040.00
2023-04-15T20:47:41.626Z,100034.72
2023-04-15T20:50:43.994Z,100035.78
2023-04-15T20:53:46.719Z,100037.22
2023-04-15T20:56:49.358Z,100041.56
2023-04-15T20:59:52.156Z,100043.81
2023-04-15T21:02:54.660Z,100045.00
2023-04-15T21:05:57.409Z,100062.28
2023-04-15T21:08:59.819Z,100042.25
2023-04-15T21:12:02.587Z,100066.34
2023-04-15T21:15:05.989Z,100071.06
2023-04-15T21:18:08.625Z,100069.19
2023-04-15T21:21:11.197Z,100051.94
2023-04-15T21:24:13.841Z,100077.00
2023-04-15T21:27:16.175Z,100082.56
2023-04-15T21:30:18.853Z,100082.75
2023-04-15T21:33:21.316Z,100069.34
2023-04-15T21:36:23.943Z,100090.41
2023-04-15T21:39:26.423Z,100099.94
2023-04-15T21:42:30.006Z,100081.53
2023-04-15T21:45:32.488Z,100104.44
2023-04-15T21:48:35.440Z,100098.88
2023-04-15T21:51:37.772Z,100102.16
2023-04-15T21:54:40.362Z,100093.03
2023-04-15T21:57:42.667Z,100082.34
2023-04-15T22:00:45.471Z,100103.38
2023-04-15T22:03:48.374Z,100090.91
2023-04-15T22:06:52.245Z,100106.50
2023-04-15T22:09:54.944Z,100111.81
2023-04-15T22:13:01.480Z,100114.87
2023-04-15T22:16:04.150Z,100117.06
2023-04-15T22:19:06.699Z,100095.84
2023-04-15T22:22:09.857Z,100119.84
2023-04-15T22:25:12.542Z,100117.72
2023-04-15T22:28:15.347Z,100124.16
2023-04-15T22:31:17.681Z,100124.56
2023-04-15T22:34:21.619Z,100110.03
2023-04-15T22:37:24.298Z,100125.44
2023-04-15T22:40:26.948Z,100121.81
2023-04-15T22:43:29.318Z,100128.53
2023-04-15T22:46:32.027Z,100131.63
2023-04-15T22:49:35.208Z,100109.53
2023-04-15T22:52:38.087Z,100114.87
2023-04-15T22:55:44.048Z,100131.06
2023-04-15T22:58:47.126Z,100130.56
2023-04-15T23:01:49.707Z,100128.94
2023-04-15T23:04:52.561Z,100137.56
2023-04-15T23:07:55.020Z,100132.88
2023-04-15T23:10:57.634Z,100131.25
2023-04-15T23:13:59.966Z,100135.34
2023-04-15T23:17:02.634Z,100130.88
2023-04-15T23:20:05.742Z,100138.69
2023-04-15T23:23:08.362Z,100132.94
2023-04-15T23:26:10.653Z,100117.59
2023-04-15T23:29:13.263Z,100123.69
2023-04-15T23:32:15.562Z,100120.97
2023-04-15T23:35:18.194Z,100122.91
2023-04-15T23:38:20.572Z,100131.69
2023-04-15T23:41:23.188Z,100148.19
2023-04-15T23:44:25.591Z,100150.97
2023-04-15T23:47:28.299Z,100155.19
2023-04-15T23:50:30.757Z,100154.94
2023-04-15T23:53:33.618Z,100153.53
2023-04-15T23:56:36.479Z,100148.56
2023-04-15T23:59:39.115Z,100155.28
